createdAt,value
2023-01-06T00:02:37.159Z,96981.94
2023-01-06T00:05:33.964Z,96974.28
2023-01-06T00:08:30.996Z,96982.78
2023-01-06T00:11:27.773Z,96976.91
2023-01-06T00:14:24.534Z,96970.28
2023-01-06T00:17:21.505Z,96968.69
2023-01-06T00:20:18.243Z,96972.69
2023-01-06T00:23:15.412Z,96971.63
2023-01-06T00:26:12.219Z,96966.56
2023-01-06T00:29:10.750Z,96970.56
2023-01-06T00:32:07.502Z,96971.34
2023-01-06T00:35:04.540Z,96966.28
2023-01-06T00:38:01.461Z,96962.56
2023-01-06T00:40:58.211Z,96962.56
2023-01-06T00:43:55.511Z,96955.13
2023-01-06T00:46:52.313Z,96958.56
2023-01-06T00:49:49.084Z,96949.81
2023-01-06T00:52:47.541Z,96946.91
2023-01-06T00:55:44.489Z,96945.84
2023-01-06T00:58:41.240Z,96937.34
2023-01-06T01:01:38.584Z,96950.66
2023-01-06T01:04:35.643Z,96945.84
2023-01-06T01:07:32.619Z,96949.84
2023-01-06T01:10:29.405Z,96949.03
2023-01-06T01:13:26.159Z,96953.84
2023-01-06T01:16:23.044Z,96952.53
2023-01-06T01:19:20.537Z,96946.13
2023-01-06T01:22:17.827Z,96951.16
2023-01-06T01:25:14.589Z,96946.94
2023-01-06T01:28:11.358Z,96933.63
2023-01-06T01:31:08.212Z,96942.09
2023-01-06T01:34:04.989Z,96945.84
2023-01-06T01:37:01.741Z,96938.94
2023-01-06T01:39:58.479Z,96935.75
2023-01-06T01:42:55.263Z,96936.78
2023-01-06T01:45:54.264Z,96920.31
2023-01-06T01:48:52.046Z,96920.84
2023-01-06T01:51:50.534Z,96925.34
2023-01-06T01:54:48.873Z,96920.84
2023-01-06T01:58:06.129Z,96928.81
2023-01-06T02:01:03.086Z,96924.00
2023-01-06T02:04:01.305Z,96926.94
2023-01-06T02:06:58.192Z,96928.00
2023-01-06T02:10:15.657Z,96925.34
2023-01-06T02:13:12.678Z,96913.34
2023-01-06T02:16:23.885Z,96913.34
2023-01-06T02:20:00.441Z,96906.44
2023-01-06T02:23:34.697Z,96908.31
2023-01-06T02:26:59.975Z,96908.03
2023-01-06T02:30:30.972Z,96913.34
2023-01-06T02:33:31.737Z,96899.25
2023-01-06T02:36:35.315Z,96894.72
2023-01-06T02:39:38.799Z,96895.00
2023-01-06T02:42:47.801Z,96887.53
2023-01-06T02:46:05.610Z,96880.59
2023-01-06T02:49:29.423Z,96882.72
2023-01-06T02:52:31.795Z,96878.22
2023-01-06T02:55:34.847Z,96870.50
2023-01-06T02:58:33.795Z,96871.81
2023-01-06T03:01:39.076Z,96865.44
2023-01-06T03:04:40.372Z,96874.19
2023-01-06T03:07:38.751Z,96864.63
2023-01-06T03:10:36.503Z,96871.31
2023-01-06T03:14:13.697Z,96862.22
2023-01-06T03:17:10.650Z,96867.53
2023-01-06T03:20:07.869Z,96864.63
2023-01-06T03:23:05.342Z,96855.56
2023-01-06T03:26:02.137Z,96852.88
2023-01-06T03:28:59.411Z,96842.78
2023-01-06T03:32:10.034Z,96841.97
2023-01-06T03:35:28.409Z,96843.81
2023-01-06T03:38:43.485Z,96840.06
2023-01-06T03:42:02.499Z,96834.69
2023-01-06T03:45:06.649Z,96832.03
2023-01-06T03:48:11.663Z,96820.88
2023-01-06T03:51:26.220Z,96840.75
2023-01-06T03:54:52.398Z,96836.28
2023-01-06T03:57:52.944Z,96830.72
2023-01-06T04:00:49.878Z,96826.75
2023-01-06T04:03:47.915Z,96819.22
2023-01-06T04:06:44.878Z,96830.44
2023-01-06T04:09:41.621Z,96824.03
2023-01-06T04:12:38.792Z,96822.19
2023-01-06T04:15:35.605Z,96820.59
2023-01-06T04:18:32.318Z,96822.16
2023-01-06T04:21:29.125Z,96816.84
2023-01-06T04:24:25.957Z,96817.34
2023-01-06T04:27:22.770Z,96802.38
2023-01-06T04:30:19.800Z,96803.19
2023-01-06T04:33:16.530Z,96802.91
2023-01-06T04:36:14.401Z,96802.34
2023-01-06T04:39:11.192Z,96786.97
2023-01-06T04:42:08.214Z,96785.03
2023-01-06T04:45:05.238Z,96790.88
2023-01-06T04:48:02.068Z,96779.22
2023-01-06T04:51:03.917Z,96776.69
2023-01-06T04:54:00.677Z,96760.50
2023-01-06T04:56:57.419Z,96762.78
2023-01-06T04:59:54.177Z,96768.91
2023-01-06T05:02:51.038Z,96760.47
2023-01-06T05:05:47.783Z,96761.97
2023-01-06T05:08:45.324Z,96760.09
2023-01-06T05:11:42.170Z,96758.59
2023-01-06T05:14:38.935Z,96756.34
2023-01-06T05:17:35.653Z,96763.97
2023-01-06T05:20:32.404Z,96758.16
2023-01-06T05:23:29.131Z,96751.00
2023-01-06T05:26:27.687Z,96748.06
2023-01-06T05:29:24.492Z,96747.78
2023-01-06T05:32:21.218Z,96758.31
2023-01-06T05:35:18.041Z,96753.38
2023-01-06T05:38:14.767Z,96741.06
2023-01-06T05:41:11.758Z,96754.28
2023-01-06T05:44:08.658Z,96748.47
2023-01-06T05:47:05.442Z,96741.38
2023-01-06T05:50:02.364Z,96741.25
2023-01-06T05:53:00.005Z,96728.81
2023-01-06T05:56:00.110Z,96745.25
2023-01-06T05:58:57.105Z,96745.78
2023-01-06T06:01:53.907Z,96743.94
2023-01-06T06:04:51.259Z,96734.84
2023-01-06T06:07:57.207Z,96738.28
2023-01-06T06:10:53.956Z,96744.03
2023-01-06T06:13:52.634Z,96744.03
2023-01-06T06:16:49.491Z,96732.06
2023-01-06T06:19:46.304Z,96751.03
2023-01-06T06:22:43.051Z,96752.00
2023-01-06T06:25:39.799Z,96747.94
2023-01-06T06:28:37.834Z,96746.38
2023-01-06T06:31:34.739Z,96747.97
2023-01-06T06:34:31.528Z,96758.31
2023-01-06T06:37:29.406Z,96763.50
2023-01-06T06:40:26.830Z,96765.97
2023-01-06T06:43:23.871Z,96763.38
2023-01-06T06:46:21.053Z,96767.84
2023-01-06T06:49:17.800Z,96777.22
2023-01-06T06:52:16.261Z,96770.00
2023-01-06T06:55:13.017Z,96769.50
2023-01-06T06:58:10.567Z,96778.50
2023-01-06T07:01:12.299Z,96778.38
2023-01-06T07:04:09.115Z,96770.28
2023-01-06T07:07:05.872Z,96763.88
2023-01-06T07:10:02.630Z,96772.66
2023-01-06T07:12:59.356Z,96762.28
2023-01-06T07:15:56.112Z,96776.53
2023-01-06T07:18:53.295Z,96773.09
2023-01-06T07:21:50.029Z,96778.09
2023-01-06T07:24:46.820Z,96783.16
2023-01-06T07:27:43.617Z,96773.06
2023-01-06T07:30:40.378Z,96779.66
2023-01-06T07:33:37.129Z,96777.59
2023-01-06T07:36:33.875Z,96781.56
2023-01-06T07:39:30.619Z,96791.16
2023-01-06T07:42:27.357Z,96787.75
2023-01-06T07:45:24.208Z,96785.50
2023-01-06T07:48:20.952Z,96781.75
2023-01-06T07:51:17.795Z,96787.41
2023-01-06T07:54:14.761Z,96786.00
2023-01-06T07:57:11.498Z,96789.25
2023-01-06T08:00:09.224Z,96798.34
2023-01-06T08:03:07.108Z,96794.09
2023-01-06T08:06:10.653Z,96797.97
2023-01-06T08:09:08.148Z,96792.69
2023-01-06T08:12:05.058Z,96799.66
2023-01-06T08:15:01.800Z,96794.59
2023-01-06T08:17:58.603Z,96794.59
2023-01-06T08:21:00.830Z,96790.63
2023-01-06T08:23:57.649Z,96799.94
2023-01-06T08:26:54.458Z,96798.81
2023-01-06T08:29:54.734Z,96802.81
2023-01-06T08:32:51.485Z,96803.69
2023-01-06T08:35:48.228Z,96803.66
2023-01-06T08:38:45.438Z,96814.41
2023-01-06T08:41:42.272Z,96814.22
2023-01-06T08:44:39.071Z,96820.06
2023-01-06T08:47:36.516Z,96806.72
2023-01-06T08:50:33.275Z,96813.88
2023-01-06T08:53:32.603Z,96807.75
2023-01-06T08:56:31.621Z,96807.25
2023-01-06T08:59:28.433Z,96805.94
2023-01-06T09:02:27.265Z,96811.28
2023-01-06T09:05:24.081Z,96818.00
2023-01-06T09:08:20.947Z,96805.16
2023-01-06T09:11:17.991Z,96818.28
2023-01-06T09:14:14.881Z,96834.00
2023-01-06T09:17:11.615Z,96827.66
2023-01-06T09:20:08.974Z,96835.56
2023-01-06T09:23:05.929Z,96832.41
2023-01-06T09:26:02.669Z,96832.91
2023-01-06T09:28:59.447Z,96823.88
2023-01-06T09:31:56.174Z,96820.16
2023-01-06T09:34:52.921Z,96822.03
2023-01-06T09:37:49.783Z,96823.13
2023-01-06T09:40:59.957Z,96838.59
2023-01-06T09:44:24.534Z,96843.66
2023-01-06T09:47:26.049Z,96841.00
2023-01-06T09:50:35.732Z,96825.00
2023-01-06T09:53:39.624Z,96827.44
2023-01-06T09:56:36.817Z,96833.56
2023-01-06T09:59:41.813Z,96817.59
2023-01-06T10:02:40.170Z,96823.19
2023-01-06T10:05:49.098Z,96827.69
2023-01-06T10:09:03.719Z,96821.03
2023-01-06T10:12:23.066Z,96820.25
2023-01-06T10:15:48.526Z,96821.63
2023-01-06T10:19:22.004Z,96821.63
2023-01-06T10:22:42.659Z,96826.72
2023-01-06T10:25:51.303Z,96822.69
2023-01-06T10:28:53.308Z,96820.25
2023-01-06T10:31:53.400Z,96821.81
2023-01-06T10:34:50.992Z,96824.22
2023-01-06T10:37:50.499Z,96831.97
2023-01-06T10:40:47.301Z,96822.88
2023-01-06T10:43:44.333Z,96824.50
2023-01-06T10:46:41.883Z,96828.00
2023-01-06T10:49:38.694Z,96828.00
2023-01-06T10:52:35.564Z,96829.03
2023-01-06T10:55:34.873Z,96812.50
2023-01-06T10:58:50.028Z,96815.97
2023-01-06T11:01:55.718Z,96828.00
2023-01-06T11:04:52.576Z,96827.94
2023-01-06T11:08:07.803Z,96821.75
2023-01-06T11:11:16.515Z,96822.88
2023-01-06T11:14:28.163Z,96807.63
2023-01-06T11:17:25.408Z,96811.66
2023-01-06T11:20:22.045Z,96808.19
2023-01-06T11:23:23.085Z,96802.00
2023-01-06T11:26:23.521Z,96800.63
2023-01-06T11:29:35.088Z,96803.88
2023-01-06T11:32:31.880Z,96792.63
2023-01-06T11:35:30.931Z,96797.69
2023-01-06T11:38:28.444Z,96790.72
2023-01-06T11:41:34.857Z,96792.81
2023-01-06T11:44:35.304Z,96785.97
2023-01-06T11:47:32.094Z,96785.97
2023-01-06T11:50:28.879Z,96777.63
2023-01-06T11:53:26.453Z,96775.84
2023-01-06T11:56:23.713Z,96784.88
2023-01-06T11:59:22.964Z,96784.81
2023-01-06T12:02:48.592Z,96777.34
2023-01-06T12:06:04.133Z,96777.88
2023-01-06T12:09:24.319Z,96779.28
2023-01-06T12:12:23.754Z,96781.09
2023-01-06T12:15:22.461Z,96775.03
2023-01-06T12:18:23.539Z,96770.41
2023-01-06T12:21:30.366Z,96767.03
2023-01-06T12:24:28.893Z,96761.97
2023-01-06T12:27:39.391Z,96760.31
2023-01-06T12:31:00.391Z,96779.00
2023-01-06T12:34:24.635Z,96773.09
2023-01-06T12:37:46.213Z,96775.81
2023-01-06T12:40:50.563Z,96771.66
2023-01-06T12:43:55.061Z,96772.38
2023-01-06T12:46:59.822Z,96772.34
2023-01-06T12:50:07.007Z,96781.75
2023-01-06T12:53:25.728Z,96780.88
2023-01-06T12:56:56.508Z,96773.75
2023-01-06T12:59:56.111Z,96775.84
2023-01-06T13:03:12.084Z,96776.69
2023-01-06T13:06:21.755Z,96779.56
2023-01-06T13:09:54.519Z,96779.56
2023-01-06T13:13:06.196Z,96775.06
2023-01-06T13:16:12.886Z,96775.63
2023-01-06T13:19:21.013Z,96778.78
2023-01-06T13:22:43.468Z,96772.94
2023-01-06T13:26:01.862Z,96778.84
2023-01-06T13:29:31.527Z,96780.44
2023-01-06T13:32:59.432Z,96781.22
2023-01-06T13:36:27.439Z,96782.53
2023-01-06T13:39:33.188Z,96777.81
2023-01-06T13:42:41.573Z,96792.19
2023-01-06T13:45:42.653Z,96788.19
2023-01-06T13:48:43.618Z,96787.66
2023-01-06T13:51:41.248Z,96786.09
2023-01-06T13:54:40.585Z,96788.25
2023-01-06T13:57:40.106Z,96788.25
2023-01-06T14:00:36.869Z,96788.19
2023-01-06T14:03:34.236Z,96795.63
2023-01-06T14:06:40.711Z,96796.75
2023-01-06T14:09:46.791Z,96793.22
2023-01-06T14:12:47.792Z,96797.31
2023-01-06T14:15:55.442Z,96795.47
2023-01-06T14:19:04.198Z,96790.91
2023-01-06T14:22:15.804Z,96789.84
2023-01-06T14:25:22.804Z,96788.03
2023-01-06T14:28:19.424Z,96789.84
2023-01-06T14:31:30.951Z,96800.84
2023-01-06T14:34:27.833Z,96807.72
2023-01-06T14:37:28.542Z,96802.66
2023-01-06T14:40:29.316Z,96813.41
2023-01-06T14:43:33.413Z,96815.84
2023-01-06T14:46:33.306Z,96801.09
2023-01-06T14:49:44.429Z,96814.47
2023-01-06T14:52:45.760Z,96823.00
2023-01-06T14:55:46.042Z,96833.94
2023-01-06T14:58:42.820Z,96834.44
2023-01-06T15:01:43.115Z,96829.91
2023-01-06T15:04:42.023Z,96837.38
2023-01-06T15:07:38.745Z,96836.31
2023-01-06T15:10:39.044Z,96848.63
2023-01-06T15:13:35.783Z,96843.28
2023-01-06T15:16:37.915Z,96844.94
2023-01-06T15:19:35.071Z,96848.63
2023-01-06T15:22:31.817Z,96842.78
2023-01-06T15:25:29.605Z,96844.44
2023-01-06T15:28:27.138Z,96851.06
2023-01-06T15:31:23.893Z,96842.25
2023-01-06T15:34:35.369Z,96851.31
2023-01-06T15:37:34.864Z,96864.44
2023-01-06T15:40:31.877Z,96864.38
2023-01-06T15:43:29.001Z,96868.38
2023-01-06T15:46:27.931Z,96871.03
2023-01-06T15:49:28.654Z,96872.91
2023-01-06T15:52:27.731Z,96875.50
2023-01-06T15:55:31.733Z,96873.19
2023-01-06T15:58:30.466Z,96874.25
2023-01-06T16:01:27.285Z,96883.81
2023-01-06T16:04:24.560Z,96883.34
2023-01-06T16:07:42.164Z,96880.94
2023-01-06T16:10:38.993Z,96878.00
2023-01-06T16:13:35.749Z,96883.09
2023-01-06T16:16:35.845Z,96880.94
2023-01-06T16:19:33.313Z,96876.69
2023-01-06T16:22:48.021Z,96872.16
2023-01-06T16:25:44.792Z,96875.88
2023-01-06T16:28:45.064Z,96875.34
2023-01-06T16:31:41.824Z,96880.13
2023-01-06T16:34:38.664Z,96885.97
2023-01-06T16:37:35.385Z,96882.25
2023-01-06T16:40:32.121Z,96875.84
2023-01-06T16:43:28.861Z,96883.59
2023-01-06T16:46:27.335Z,96877.44
2023-01-06T16:49:24.427Z,96873.97
2023-01-06T16:52:21.401Z,96879.34
2023-01-06T16:55:19.510Z,96878.50
2023-01-06T16:58:20.919Z,96881.47
2023-01-06T17:01:19.938Z,96880.72
2023-01-06T17:04:16.835Z,96886.56
2023-01-06T17:07:15.289Z,96883.59
2023-01-06T17:10:18.644Z,96879.06
2023-01-06T17:13:34.602Z,96881.22
2023-01-06T17:16:33.143Z,96885.47
2023-01-06T17:19:32.363Z,96889.22
2023-01-06T17:22:32.070Z,96890.50
2023-01-06T17:25:30.813Z,96890.25
2023-01-06T17:28:28.448Z,96896.91
2023-01-06T17:31:38.818Z,96894.53
2023-01-06T17:34:36.734Z,96904.69
2023-01-06T17:37:33.567Z,96898.25
2023-01-06T17:40:35.057Z,96902.53
2023-01-06T17:43:37.081Z,96893.41
2023-01-06T17:46:36.450Z,96894.53
2023-01-06T17:49:35.620Z,96902.47
2023-01-06T17:52:37.466Z,96901.97
2023-01-06T17:55:44.134Z,96899.59
2023-01-06T17:58:45.441Z,96903.03
2023-01-06T18:01:42.224Z,96898.78
2023-01-06T18:04:39.079Z,96893.47
2023-01-06T18:07:35.832Z,96889.72
2023-01-06T18:10:42.224Z,96894.53
2023-01-06T18:13:41.258Z,96885.19
2023-01-06T18:16:38.399Z,96885.75
2023-01-06T18:19:37.503Z,96892.44
2023-01-06T18:22:35.335Z,96894.53
2023-01-06T18:25:33.726Z,96909.44
2023-01-06T18:28:50.134Z,96912.97
2023-01-06T18:31:49.612Z,96908.13
2023-01-06T18:34:51.582Z,96911.34
2023-01-06T18:37:50.925Z,96911.59
2023-01-06T18:40:47.674Z,96920.66
2023-01-06T18:43:44.470Z,96916.41
2023-01-06T18:46:41.990Z,96921.16
2023-01-06T18:49:38.727Z,96922.78
2023-01-06T18:52:46.202Z,96928.38
2023-01-06T18:55:51.274Z,96930.81
2023-01-06T18:58:57.220Z,96929.44
2023-01-06T19:01:54.019Z,96930.25
2023-01-06T19:04:50.750Z,96939.28
2023-01-06T19:07:49.402Z,96931.56
2023-01-06T19:10:47.771Z,96926.78
2023-01-06T19:13:48.839Z,96928.09
2023-01-06T19:16:56.352Z,96934.78
2023-01-06T19:19:53.592Z,96935.06
2023-01-06T19:22:50.418Z,96929.97
2023-01-06T19:25:53.033Z,96930.53
2023-01-06T19:28:55.165Z,96932.66
2023-01-06T19:31:57.057Z,96929.72
2023-01-06T19:34:55.519Z,96928.13
2023-01-06T19:38:01.144Z,96923.59
2023-01-06T19:41:00.339Z,96924.41
2023-01-06T19:44:10.216Z,96926.25
2023-01-06T19:47:24.442Z,96924.91
2023-01-06T19:50:23.284Z,96914.81
2023-01-06T19:53:48.493Z,96923.06
2023-01-06T19:56:45.767Z,96930.00
2023-01-06T19:59:42.508Z,96924.88
2023-01-06T20:02:45.168Z,96929.44
2023-01-06T20:05:42.018Z,96928.38
2023-01-06T20:08:38.959Z,96927.06
2023-01-06T20:11:35.714Z,96928.13
2023-01-06T20:14:32.453Z,96930.28
2023-01-06T20:17:29.188Z,96930.00
2023-01-06T20:20:25.992Z,96927.59
2023-01-06T20:23:22.722Z,96924.97
2023-01-06T20:26:19.490Z,96932.66
2023-01-06T20:29:17.463Z,96938.78
2023-01-06T20:32:14.273Z,96936.41
2023-01-06T20:35:12.074Z,96935.09
2023-01-06T20:38:09.906Z,96928.41
2023-01-06T20:41:06.716Z,96926.31
2023-01-06T20:44:03.497Z,96937.47
2023-01-06T20:47:00.260Z,96936.41
2023-01-06T20:49:57.001Z,96944.94
2023-01-06T20:52:54.220Z,96939.09
2023-01-06T20:55:50.999Z,96943.91
2023-01-06T20:58:47.737Z,96940.41
2023-01-06T21:01:44.579Z,96943.34
2023-01-06T21:04:41.380Z,96943.09
2023-01-06T21:07:38.175Z,96934.84
2023-01-06T21:10:34.997Z,96943.91
2023-01-06T21:13:31.751Z,96941.50
2023-01-06T21:16:28.553Z,96937.25
2023-01-06T21:19:25.425Z,96945.22
2023-01-06T21:22:22.268Z,96934.06
2023-01-06T21:25:19.775Z,96935.38
2023-01-06T21:28:16.536Z,96938.59
2023-01-06T21:31:13.367Z,96945.25
2023-01-06T21:34:10.231Z,96941.53
2023-01-06T21:37:07.520Z,96927.66
2023-01-06T21:40:08.110Z,96930.28
2023-01-06T21:43:10.482Z,96930.56
2023-01-06T21:46:07.301Z,96933.78
2023-01-06T21:49:04.077Z,96930.84
2023-01-06T21:52:02.570Z,96937.22
2023-01-06T21:54:59.314Z,96944.41
2023-01-06T21:57:56.119Z,96944.13
2023-01-06T22:00:52.923Z,96948.13
2023-01-06T22:03:49.666Z,96954.53
2023-01-06T22:06:46.946Z,96939.63
2023-01-06T22:09:45.607Z,96948.97
2023-01-06T22:12:43.962Z,96945.50
2023-01-06T22:15:41.463Z,96946.53
2023-01-06T22:18:38.335Z,96947.09
2023-01-06T22:21:35.245Z,96950.53
2023-01-06T22:24:32.458Z,96960.66
2023-01-06T22:27:29.231Z,96956.69
2023-01-06T22:30:26.849Z,96951.31
2023-01-06T22:33:23.885Z,96950.53
2023-01-06T22:36:20.709Z,96956.91
2023-01-06T22:39:17.442Z,96975.84
2023-01-06T22:42:14.640Z,96970.78
2023-01-06T22:45:11.983Z,96965.47
2023-01-06T22:48:08.728Z,96973.44
2023-01-06T22:51:06.087Z,96966.81
2023-01-06T22:54:02.852Z,96962.75
2023-01-06T22:56:59.612Z,96956.13
2023-01-06T22:59:58.330Z,96967.06
2023-01-06T23:02:55.154Z,96965.97
2023-01-06T23:06:02.542Z,96970.22
2023-01-06T23:09:01.020Z,96974.53
2023-01-06T23:11:58.013Z,96974.53
2023-01-06T23:14:54.749Z,96968.13
2023-01-06T23:17:51.501Z,96965.47
2023-01-06T23:20:56.924Z,96955.34
2023-01-06T23:23:54.078Z,96964.16
2023-01-06T23:26:50.836Z,96962.56
2023-01-06T23:29:47.577Z,96959.06
2023-01-06T23:32:44.324Z,96962.56
2023-01-06T23:35:41.101Z,96963.06
2023-01-06T23:38:38.183Z,96955.59
2023-01-06T23:41:36.582Z,96957.75
2023-01-06T23:44:33.310Z,96957.47
2023-01-06T23:47:30.060Z,96954.03
2023-01-06T23:50:26.799Z,96953.50
2023-01-06T23:53:24.012Z,96944.16
2023-01-06T23:56:26.110Z,96950.81
2023-01-06T23:59:22.845Z,96936.72
